sensor_id;sensor_type;location;lat;lon;timestamp;P1;durP1;ratioP1;P2;durP2;ratioP2
21886;SDS011;11108;49.988;8.182;2022-12-18T00:00:24;6.57;;;5.93;;
21886;SDS011;11108;49.988;8.182;2022-12-18T00:02:49;6.23;;;5.63;;
21886;SDS011;11108;49.988;8.182;2022-12-18T00:05:14;6.17;;;5.57;;
21886;SDS011;11108;49.988;8.182;2022-12-18T00:07:40;6.37;;;5.87;;
21886;SDS011;11108;49.988;8.182;2022-12-18T00:10:05;6.83;;;6.23;;
21886;SDS011;11108;49.988;8.182;2022-12-18T00:12:30;8.30;;;5.43;;
21886;SDS011;11108;49.988;8.182;2022-12-18T00:14:59;6.13;;;5.40;;
21886;SDS011;11108;49.988;8.182;2022-12-18T00:17:24;5.90;;;5.40;;
21886;SDS011;11108;49.988;8.182;2022-12-18T00:19:50;5.47;;;4.97;;
21886;SDS011;11108;49.988;8.182;2022-12-18T00:22:15;6.93;;;6.33;;
21886;SDS011;11108;49.988;8.182;2022-12-18T00:24:43;5.83;;;5.33;;
21886;SDS011;11108;49.988;8.182;2022-12-18T00:27:08;5.47;;;4.97;;
21886;SDS011;11108;49.988;8.182;2022-12-18T00:29:34;7.07;;;6.47;;
21886;SDS011;11108;49.988;8.182;2022-12-18T00:31:59;6.30;;;5.70;;
21886;SDS011;11108;49.988;8.182;2022-12-18T00:34:24;5.67;;;5.17;;
21886;SDS011;11108;49.988;8.182;2022-12-18T00:36:49;6.03;;;5.53;;
21886;SDS011;11108;49.988;8.182;2022-12-18T00:39:14;5.70;;;5.20;;
21886;SDS011;11108;49.988;8.182;2022-12-18T00:41:40;6.20;;;5.60;;
21886;SDS011;11108;49.988;8.182;2022-12-18T00:44:23;6.03;;;5.53;;
21886;SDS011;11108;49.988;8.182;2022-12-18T00:46:49;6.17;;;5.57;;
21886;SDS011;11108;49.988;8.182;2022-12-18T00:49:15;5.93;;;5.43;;
21886;SDS011;11108;49.988;8.182;2022-12-18T00:51:40;6.50;;;5.87;;
21886;SDS011;11108;49.988;8.182;2022-12-18T00:54:06;7.03;;;5.43;;
21886;SDS011;11108;49.988;8.182;2022-12-18T00:56:31;6.07;;;5.47;;
21886;SDS011;11108;49.988;8.182;2022-12-18T00:58:56;6.73;;;6.00;;
21886;SDS011;11108;49.988;8.182;2022-12-18T01:01:21;5.73;;;5.20;;
21886;SDS011;11108;49.988;8.182;2022-12-18T01:03:47;6.00;;;5.47;;
21886;SDS011;11108;49.988;8.182;2022-12-18T01:06:13;6.43;;;5.90;;
21886;SDS011;11108;49.988;8.182;2022-12-18T01:08:38;5.83;;;5.30;;
21886;SDS011;11108;49.988;8.182;2022-12-18T01:11:07;5.80;;;5.30;;
21886;SDS011;11108;49.988;8.182;2022-12-18T01:13:33;6.03;;;5.43;;
21886;SDS011;11108;49.988;8.182;2022-12-18T01:15:58;5.60;;;5.10;;
21886;SDS011;11108;49.988;8.182;2022-12-18T01:18:23;5.93;;;5.40;;
21886;SDS011;11108;49.988;8.182;2022-12-18T01:20:49;6.03;;;5.37;;
21886;SDS011;11108;49.988;8.182;2022-12-18T01:23:14;6.13;;;5.53;;
21886;SDS011;11108;49.988;8.182;2022-12-18T01:25:39;4.80;;;4.40;;
21886;SDS011;11108;49.988;8.182;2022-12-18T01:28:04;5.60;;;5.10;;
21886;SDS011;11108;49.988;8.182;2022-12-18T01:30:29;6.70;;;6.10;;
21886;SDS011;11108;49.988;8.182;2022-12-18T01:32:55;6.40;;;5.80;;
21886;SDS011;11108;49.988;8.182;2022-12-18T01:35:20;6.33;;;5.73;;
21886;SDS011;11108;49.988;8.182;2022-12-18T01:37:45;5.90;;;5.33;;
21886;SDS011;11108;49.988;8.182;2022-12-18T01:40:10;5.70;;;5.20;;
21886;SDS011;11108;49.988;8.182;2022-12-18T01:42:35;5.60;;;5.10;;
21886;SDS011;11108;49.988;8.182;2022-12-18T01:47:40;6.03;;;5.50;;
21886;SDS011;11108;49.988;8.182;2022-12-18T01:50:10;6.73;;;6.07;;
21886;SDS011;11108;49.988;8.182;2022-12-18T01:52:36;5.77;;;5.20;;
21886;SDS011;11108;49.988;8.182;2022-12-18T01:55:03;5.17;;;4.77;;
21886;SDS011;11108;49.988;8.182;2022-12-18T01:57:29;5.33;;;4.83;;
21886;SDS011;11108;49.988;8.182;2022-12-18T01:59:56;6.03;;;5.53;;
21886;SDS011;11108;49.988;8.182;2022-12-18T02:02:23;5.50;;;5.00;;
21886;SDS011;11108;49.988;8.182;2022-12-18T02:04:50;5.17;;;4.70;;
21886;SDS011;11108;49.988;8.182;2022-12-18T02:09:43;5.60;;;5.13;;
21886;SDS011;11108;49.988;8.182;2022-12-18T02:12:13;5.53;;;5.03;;
21886;SDS011;11108;49.988;8.182;2022-12-18T02:14:43;5.40;;;4.90;;
21886;SDS011;11108;49.988;8.182;2022-12-18T02:17:11;5.93;;;5.43;;
21886;SDS011;11108;49.988;8.182;2022-12-18T02:24:40;4.93;;;4.53;;
21886;SDS011;11108;49.988;8.182;2022-12-18T02:27:08;4.97;;;4.57;;
21886;SDS011;11108;49.988;8.182;2022-12-18T02:29:39;6.20;;;5.60;;
21886;SDS011;11108;49.988;8.182;2022-12-18T02:32:06;5.83;;;5.33;;
21886;SDS011;11108;49.988;8.182;2022-12-18T02:34:32;5.37;;;4.87;;
21886;SDS011;11108;49.988;8.182;2022-12-18T02:37:00;5.40;;;4.90;;
21886;SDS011;11108;49.988;8.182;2022-12-18T02:39:26;5.90;;;5.40;;
21886;SDS011;11108;49.988;8.182;2022-12-18T02:41:52;5.77;;;5.27;;
21886;SDS011;11108;49.988;8.182;2022-12-18T02:44:18;5.37;;;4.97;;
21886;SDS011;11108;49.988;8.182;2022-12-18T02:46:45;5.57;;;5.07;;
21886;SDS011;11108;49.988;8.182;2022-12-18T02:54:53;5.37;;;4.90;;
21886;SDS011;11108;49.988;8.182;2022-12-18T02:57:24;5.90;;;5.37;;
21886;SDS011;11108;49.988;8.182;2022-12-18T03:00:05;5.23;;;4.83;;
21886;SDS011;11108;49.988;8.182;2022-12-18T03:02:39;5.50;;;5.00;;
21886;SDS011;11108;49.988;8.182;2022-12-18T03:07:43;5.10;;;4.60;;
21886;SDS011;11108;49.988;8.182;2022-12-18T03:10:11;5.00;;;4.60;;
21886;SDS011;11108;49.988;8.182;2022-12-18T03:12:38;5.10;;;4.70;;
21886;SDS011;11108;49.988;8.182;2022-12-18T03:15:16;5.43;;;4.93;;
21886;SDS011;11108;49.988;8.182;2022-12-18T03:17:48;5.13;;;4.67;;
21886;SDS011;11108;49.988;8.182;2022-12-18T03:20:19;5.83;;;5.33;;
21886;SDS011;11108;49.988;8.182;2022-12-18T03:22:45;6.27;;;5.67;;
21886;SDS011;11108;49.988;8.182;2022-12-18T03:25:13;5.63;;;5.13;;
21886;SDS011;11108;49.988;8.182;2022-12-18T03:27:38;5.43;;;4.93;;
21886;SDS011;11108;49.988;8.182;2022-12-18T03:30:07;5.13;;;4.70;;
21886;SDS011;11108;49.988;8.182;2022-12-18T03:32:36;5.20;;;4.80;;
21886;SDS011;11108;49.988;8.182;2022-12-18T03:35:03;4.57;;;4.17;;
21886;SDS011;11108;49.988;8.182;2022-12-18T03:37:29;5.30;;;4.90;;
21886;SDS011;11108;49.988;8.182;2022-12-18T03:39:54;5.50;;;5.00;;
21886;SDS011;11108;49.988;8.182;2022-12-18T03:42:25;5.20;;;4.80;;
21886;SDS011;11108;49.988;8.182;2022-12-18T03:45:02;5.03;;;4.63;;
21886;SDS011;11108;49.988;8.182;2022-12-18T03:50:16;5.30;;;4.90;;
21886;SDS011;11108;49.988;8.182;2022-12-18T03:55:11;5.30;;;4.90;;
21886;SDS011;11108;49.988;8.182;2022-12-18T03:57:37;5.13;;;4.73;;
21886;SDS011;11108;49.988;8.182;2022-12-18T04:00:06;4.73;;;4.33;;
21886;SDS011;11108;49.988;8.182;2022-12-18T04:02:31;5.10;;;4.70;;
21886;SDS011;11108;49.988;8.182;2022-12-18T04:04:58;5.07;;;4.67;;
21886;SDS011;11108;49.988;8.182;2022-12-18T04:07:24;5.27;;;4.87;;
21886;SDS011;11108;49.988;8.182;2022-12-18T04:09:50;5.37;;;4.83;;
21886;SDS011;11108;49.988;8.182;2022-12-18T04:12:17;5.87;;;5.33;;
21886;SDS011;11108;49.988;8.182;2022-12-18T04:14:42;4.60;;;4.20;;
21886;SDS011;11108;49.988;8.182;2022-12-18T04:17:07;5.17;;;4.67;;
21886;SDS011;11108;49.988;8.182;2022-12-18T04:19:33;5.00;;;4.50;;
21886;SDS011;11108;49.988;8.182;2022-12-18T04:21:58;4.77;;;4.37;;
21886;SDS011;11108;49.988;8.182;2022-12-18T04:24:23;4.93;;;4.47;;
21886;SDS011;11108;49.988;8.182;2022-12-18T04:26:48;4.93;;;4.53;;
21886;SDS011;11108;49.988;8.182;2022-12-18T04:29:14;4.80;;;4.40;;
21886;SDS011;11108;49.988;8.182;2022-12-18T04:31:39;5.23;;;4.80;;
21886;SDS011;11108;49.988;8.182;2022-12-18T04:34:04;5.03;;;4.63;;
21886;SDS011;11108;49.988;8.182;2022-12-18T04:36:29;5.20;;;4.80;;
21886;SDS011;11108;49.988;8.182;2022-12-18T04:38:55;5.77;;;5.27;;
21886;SDS011;11108;49.988;8.182;2022-12-18T04:41:20;4.80;;;4.40;;
21886;SDS011;11108;49.988;8.182;2022-12-18T04:43:45;5.50;;;5.00;;
21886;SDS011;11108;49.988;8.182;2022-12-18T04:46:11;4.83;;;4.43;;
21886;SDS011;11108;49.988;8.182;2022-12-18T04:48:36;5.53;;;5.03;;
21886;SDS011;11108;49.988;8.182;2022-12-18T04:51:01;4.90;;;4.50;;
21886;SDS011;11108;49.988;8.182;2022-12-18T04:53:27;4.83;;;4.43;;
21886;SDS011;11108;49.988;8.182;2022-12-18T04:56:01;5.20;;;4.80;;
21886;SDS011;11108;49.988;8.182;2022-12-18T04:58:27;4.73;;;4.33;;
21886;SDS011;11108;49.988;8.182;2022-12-18T05:00:52;4.50;;;4.20;;
21886;SDS011;11108;49.988;8.182;2022-12-18T05:03:17;4.80;;;4.40;;
21886;SDS011;11108;49.988;8.182;2022-12-18T05:05:42;5.03;;;4.63;;
21886;SDS011;11108;49.988;8.182;2022-12-18T05:08:07;4.70;;;4.30;;
21886;SDS011;11108;49.988;8.182;2022-12-18T05:10:33;4.83;;;4.43;;
21886;SDS011;11108;49.988;8.182;2022-12-18T05:12:58;4.33;;;3.93;;
21886;SDS011;11108;49.988;8.182;2022-12-18T05:15:23;4.93;;;4.53;;
21886;SDS011;11108;49.988;8.182;2022-12-18T05:17:49;4.67;;;4.37;;
21886;SDS011;11108;49.988;8.182;2022-12-18T05:20:14;4.73;;;4.33;;
21886;SDS011;11108;49.988;8.182;2022-12-18T05:22:40;4.90;;;4.50;;
21886;SDS011;11108;49.988;8.182;2022-12-18T05:25:05;4.70;;;4.30;;
21886;SDS011;11108;49.988;8.182;2022-12-18T05:27:30;6.17;;;4.20;;
21886;SDS011;11108;49.988;8.182;2022-12-18T05:29:55;4.47;;;4.17;;
21886;SDS011;11108;49.988;8.182;2022-12-18T05:32:20;4.63;;;4.23;;
21886;SDS011;11108;49.988;8.182;2022-12-18T05:34:46;4.90;;;4.50;;
21886;SDS011;11108;49.988;8.182;2022-12-18T05:37:11;5.17;;;4.67;;
21886;SDS011;11108;49.988;8.182;2022-12-18T05:39:36;5.17;;;4.63;;
21886;SDS011;11108;49.988;8.182;2022-12-18T05:42:01;5.43;;;4.23;;
21886;SDS011;11108;49.988;8.182;2022-12-18T05:44:26;5.57;;;4.13;;
21886;SDS011;11108;49.988;8.182;2022-12-18T05:46:52;4.47;;;4.13;;
21886;SDS011;11108;49.988;8.182;2022-12-18T05:49:17;4.53;;;4.17;;
21886;SDS011;11108;49.988;8.182;2022-12-18T05:51:42;4.60;;;4.20;;
21886;SDS011;11108;49.988;8.182;2022-12-18T05:54:07;4.97;;;3.70;;
21886;SDS011;11108;49.988;8.182;2022-12-18T05:56:32;4.17;;;3.83;;
21886;SDS011;11108;49.988;8.182;2022-12-18T05:58:58;4.70;;;4.20;;
21886;SDS011;11108;49.988;8.182;2022-12-18T06:01:24;4.57;;;4.17;;
21886;SDS011;11108;49.988;8.182;2022-12-18T06:03:50;3.60;;;3.40;;
21886;SDS011;11108;49.988;8.182;2022-12-18T06:06:33;4.60;;;4.20;;
21886;SDS011;11108;49.988;8.182;2022-12-18T06:08:58;4.70;;;4.30;;
21886;SDS011;11108;49.988;8.182;2022-12-18T06:11:25;4.37;;;4.00;;
21886;SDS011;11108;49.988;8.182;2022-12-18T06:13:54;3.80;;;3.50;;
21886;SDS011;11108;49.988;8.182;2022-12-18T06:16:19;4.63;;;4.23;;
21886;SDS011;11108;49.988;8.182;2022-12-18T06:18:45;4.27;;;3.97;;
21886;SDS011;11108;49.988;8.182;2022-12-18T06:21:10;4.23;;;3.93;;
21886;SDS011;11108;49.988;8.182;2022-12-18T06:23:35;4.73;;;4.33;;
21886;SDS011;11108;49.988;8.182;2022-12-18T06:26:07;4.07;;;3.83;;
21886;SDS011;11108;49.988;8.182;2022-12-18T06:28:33;4.50;;;4.17;;
21886;SDS011;11108;49.988;8.182;2022-12-18T06:30:58;4.07;;;3.77;;
21886;SDS011;11108;49.988;8.182;2022-12-18T06:33:26;4.63;;;3.93;;
21886;SDS011;11108;49.988;8.182;2022-12-18T06:35:51;4.03;;;3.73;;
21886;SDS011;11108;49.988;8.182;2022-12-18T06:38:16;4.47;;;4.17;;
21886;SDS011;11108;49.988;8.182;2022-12-18T06:40:42;4.10;;;3.80;;
21886;SDS011;11108;49.988;8.182;2022-12-18T06:43:07;4.20;;;3.90;;
21886;SDS011;11108;49.988;8.182;2022-12-18T06:45:32;4.33;;;3.93;;
21886;SDS011;11108;49.988;8.182;2022-12-18T06:47:58;4.20;;;3.90;;
21886;SDS011;11108;49.988;8.182;2022-12-18T06:50:23;4.50;;;4.10;;
21886;SDS011;11108;49.988;8.182;2022-12-18T06:52:48;4.97;;;4.57;;
21886;SDS011;11108;49.988;8.182;2022-12-18T06:55:13;4.33;;;3.93;;
21886;SDS011;11108;49.988;8.182;2022-12-18T06:57:38;3.70;;;3.40;;
21886;SDS011;11108;49.988;8.182;2022-12-18T07:00:04;3.77;;;3.50;;
21886;SDS011;11108;49.988;8.182;2022-12-18T07:02:30;4.40;;;4.10;;
21886;SDS011;11108;49.988;8.182;2022-12-18T07:04:55;3.73;;;3.47;;
21886;SDS011;11108;49.988;8.182;2022-12-18T07:07:20;3.83;;;3.53;;
21886;SDS011;11108;49.988;8.182;2022-12-18T07:09:46;3.73;;;3.53;;
21886;SDS011;11108;49.988;8.182;2022-12-18T07:12:11;3.70;;;3.50;;
21886;SDS011;11108;49.988;8.182;2022-12-18T07:14:36;3.33;;;3.13;;
21886;SDS011;11108;49.988;8.182;2022-12-18T07:17:01;3.90;;;3.60;;
21886;SDS011;11108;49.988;8.182;2022-12-18T07:19:26;4.23;;;3.93;;
21886;SDS011;11108;49.988;8.182;2022-12-18T07:21:52;3.93;;;3.57;;
21886;SDS011;11108;49.988;8.182;2022-12-18T07:24:17;4.03;;;3.73;;
21886;SDS011;11108;49.988;8.182;2022-12-18T07:26:42;4.47;;;4.17;;
21886;SDS011;11108;49.988;8.182;2022-12-18T07:29:07;4.30;;;3.90;;
21886;SDS011;11108;49.988;8.182;2022-12-18T07:31:33;4.90;;;4.50;;
21886;SDS011;11108;49.988;8.182;2022-12-18T07:33:58;4.23;;;3.93;;
21886;SDS011;11108;49.988;8.182;2022-12-18T07:36:23;4.03;;;3.73;;
21886;SDS011;11108;49.988;8.182;2022-12-18T07:38:49;3.90;;;3.60;;
21886;SDS011;11108;49.988;8.182;2022-12-18T07:41:15;3.90;;;3.60;;
21886;SDS011;11108;49.988;8.182;2022-12-18T07:43:40;3.77;;;3.47;;
21886;SDS011;11108;49.988;8.182;2022-12-18T07:46:06;4.00;;;3.70;;
21886;SDS011;11108;49.988;8.182;2022-12-18T07:48:31;3.80;;;3.50;;
21886;SDS011;11108;49.988;8.182;2022-12-18T07:51:00;3.90;;;3.50;;
21886;SDS011;11108;49.988;8.182;2022-12-18T07:53:26;3.43;;;3.23;;
21886;SDS011;11108;49.988;8.182;2022-12-18T07:55:57;3.83;;;3.53;;
21886;SDS011;11108;49.988;8.182;2022-12-18T07:58:23;3.60;;;3.40;;
21886;SDS011;11108;49.988;8.182;2022-12-18T08:00:48;3.90;;;3.60;;
21886;SDS011;11108;49.988;8.182;2022-12-18T08:03:13;3.80;;;3.50;;
21886;SDS011;11108;49.988;8.182;2022-12-18T08:05:38;4.53;;;4.23;;
21886;SDS011;11108;49.988;8.182;2022-12-18T08:08:04;4.13;;;3.83;;
21886;SDS011;11108;49.988;8.182;2022-12-18T08:10:29;4.10;;;3.80;;
21886;SDS011;11108;49.988;8.182;2022-12-18T08:12:54;4.33;;;3.93;;
21886;SDS011;11108;49.988;8.182;2022-12-18T08:15:19;4.63;;;3.50;;
21886;SDS011;11108;49.988;8.182;2022-12-18T08:17:44;4.83;;;3.87;;
21886;SDS011;11108;49.988;8.182;2022-12-18T08:20:10;3.37;;;3.13;;
21886;SDS011;11108;49.988;8.182;2022-12-18T08:22:38;3.63;;;3.33;;
21886;SDS011;11108;49.988;8.182;2022-12-18T08:25:04;3.50;;;3.30;;
21886;SDS011;11108;49.988;8.182;2022-12-18T08:27:29;4.10;;;3.80;;
21886;SDS011;11108;49.988;8.182;2022-12-18T08:29:55;3.77;;;3.47;;
21886;SDS011;11108;49.988;8.182;2022-12-18T08:32:20;3.30;;;3.10;;
21886;SDS011;11108;49.988;8.182;2022-12-18T08:34:45;3.37;;;3.07;;
21886;SDS011;11108;49.988;8.182;2022-12-18T08:37:10;3.93;;;3.63;;
21886;SDS011;11108;49.988;8.182;2022-12-18T08:39:35;3.57;;;3.27;;
21886;SDS011;11108;49.988;8.182;2022-12-18T08:42:01;4.00;;;3.70;;
21886;SDS011;11108;49.988;8.182;2022-12-18T08:44:44;4.03;;;3.67;;
21886;SDS011;11108;49.988;8.182;2022-12-18T08:47:10;3.93;;;3.50;;
21886;SDS011;11108;49.988;8.182;2022-12-18T08:49:35;3.93;;;3.43;;
21886;SDS011;11108;49.988;8.182;2022-12-18T08:52:00;3.90;;;3.70;;
21886;SDS011;11108;49.988;8.182;2022-12-18T08:54:26;4.27;;;3.43;;
21886;SDS011;11108;49.988;8.182;2022-12-18T08:56:51;4.90;;;3.70;;
21886;SDS011;11108;49.988;8.182;2022-12-18T08:59:17;3.80;;;3.50;;
21886;SDS011;11108;49.988;8.182;2022-12-18T09:01:43;4.90;;;3.17;;
21886;SDS011;11108;49.988;8.182;2022-12-18T09:04:11;3.57;;;3.30;;
21886;SDS011;11108;49.988;8.182;2022-12-18T09:06:36;3.40;;;3.10;;
21886;SDS011;11108;49.988;8.182;2022-12-18T09:09:02;4.57;;;3.70;;
21886;SDS011;11108;49.988;8.182;2022-12-18T09:11:27;3.73;;;3.43;;
21886;SDS011;11108;49.988;8.182;2022-12-18T09:13:53;6.23;;;3.67;;
21886;SDS011;11108;49.988;8.182;2022-12-18T09:16:19;3.90;;;3.60;;
21886;SDS011;11108;49.988;8.182;2022-12-18T09:18:44;4.10;;;3.70;;
21886;SDS011;11108;49.988;8.182;2022-12-18T09:21:10;3.60;;;3.40;;
21886;SDS011;11108;49.988;8.182;2022-12-18T09:23:36;3.80;;;3.43;;
21886;SDS011;11108;49.988;8.182;2022-12-18T09:26:01;5.97;;;3.67;;
21886;SDS011;11108;49.988;8.182;2022-12-18T09:28:26;4.10;;;3.80;;
21886;SDS011;11108;49.988;8.182;2022-12-18T09:30:52;3.57;;;3.27;;
21886;SDS011;11108;49.988;8.182;2022-12-18T09:33:17;4.20;;;3.90;;
21886;SDS011;11108;49.988;8.182;2022-12-18T09:35:44;4.00;;;3.57;;
21886;SDS011;11108;49.988;8.182;2022-12-18T09:38:14;4.17;;;3.70;;
21886;SDS011;11108;49.988;8.182;2022-12-18T09:40:41;3.73;;;3.50;;
21886;SDS011;11108;49.988;8.182;2022-12-18T09:43:09;3.73;;;3.43;;
21886;SDS011;11108;49.988;8.182;2022-12-18T09:45:42;3.73;;;3.43;;
21886;SDS011;11108;49.988;8.182;2022-12-18T09:48:32;3.70;;;3.40;;
21886;SDS011;11108;49.988;8.182;2022-12-18T09:50:55;3.70;;;3.40;;
21886;SDS011;11108;49.988;8.182;2022-12-18T09:53:23;3.77;;;3.47;;
21886;SDS011;11108;49.988;8.182;2022-12-18T09:55:49;4.03;;;3.73;;
21886;SDS011;11108;49.988;8.182;2022-12-18T09:58:22;4.43;;;3.80;;
21886;SDS011;11108;49.988;8.182;2022-12-18T10:00:51;4.47;;;4.13;;
21886;SDS011;11108;49.988;8.182;2022-12-18T10:03:17;3.70;;;3.40;;
21886;SDS011;11108;49.988;8.182;2022-12-18T10:10:58;4.37;;;3.97;;
21886;SDS011;11108;49.988;8.182;2022-12-18T10:13:42;5.37;;;3.57;;
21886;SDS011;11108;49.988;8.182;2022-12-18T10:16:23;4.00;;;3.60;;
21886;SDS011;11108;49.988;8.182;2022-12-18T10:19:07;3.57;;;3.27;;
21886;SDS011;11108;49.988;8.182;2022-12-18T10:24:23;4.10;;;3.80;;
21886;SDS011;11108;49.988;8.182;2022-12-18T10:26:49;4.23;;;3.77;;
21886;SDS011;11108;49.988;8.182;2022-12-18T10:29:16;3.93;;;3.63;;
21886;SDS011;11108;49.988;8.182;2022-12-18T10:31:41;4.37;;;3.97;;
21886;SDS011;11108;49.988;8.182;2022-12-18T10:34:11;3.77;;;3.47;;
21886;SDS011;11108;49.988;8.182;2022-12-18T10:36:36;4.00;;;3.70;;
21886;SDS011;11108;49.988;8.182;2022-12-18T10:39:18;4.03;;;3.70;;
21886;SDS011;11108;49.988;8.182;2022-12-18T10:41:44;4.53;;;4.13;;
21886;SDS011;11108;49.988;8.182;2022-12-18T10:44:10;4.23;;;3.93;;
21886;SDS011;11108;49.988;8.182;2022-12-18T10:46:36;4.60;;;3.97;;
21886;SDS011;11108;49.988;8.182;2022-12-18T10:49:01;4.10;;;3.80;;
21886;SDS011;11108;49.988;8.182;2022-12-18T10:51:28;4.40;;;4.10;;
21886;SDS011;11108;49.988;8.182;2022-12-18T10:53:55;5.63;;;3.80;;
21886;SDS011;11108;49.988;8.182;2022-12-18T10:56:20;3.73;;;3.43;;
21886;SDS011;11108;49.988;8.182;2022-12-18T10:58:54;3.93;;;3.60;;
21886;SDS011;11108;49.988;8.182;2022-12-18T11:01:20;3.80;;;3.50;;
21886;SDS011;11108;49.988;8.182;2022-12-18T11:03:46;4.07;;;3.70;;
21886;SDS011;11108;49.988;8.182;2022-12-18T11:06:23;3.80;;;3.50;;
21886;SDS011;11108;49.988;8.182;2022-12-18T11:09:05;4.03;;;3.73;;
21886;SDS011;11108;49.988;8.182;2022-12-18T11:11:32;3.93;;;3.63;;
21886;SDS011;11108;49.988;8.182;2022-12-18T11:16:26;4.27;;;3.97;;
21886;SDS011;11108;49.988;8.182;2022-12-18T11:18:51;4.30;;;3.90;;
21886;SDS011;11108;49.988;8.182;2022-12-18T11:21:16;4.47;;;3.90;;
21886;SDS011;11108;49.988;8.182;2022-12-18T11:24:00;4.33;;;4.00;;
21886;SDS011;11108;49.988;8.182;2022-12-18T11:26:33;4.70;;;4.30;;
21886;SDS011;11108;49.988;8.182;2022-12-18T11:29:09;4.63;;;4.23;;
21886;SDS011;11108;49.988;8.182;2022-12-18T11:31:35;4.73;;;3.90;;
21886;SDS011;11108;49.988;8.182;2022-12-18T11:36:28;4.20;;;3.90;;
21886;SDS011;11108;49.988;8.182;2022-12-18T11:38:54;3.47;;;3.27;;
21886;SDS011;11108;49.988;8.182;2022-12-18T11:46:12;4.43;;;4.10;;
21886;SDS011;11108;49.988;8.182;2022-12-18T11:48:58;4.10;;;3.70;;
21886;SDS011;11108;49.988;8.182;2022-12-18T11:51:37;4.33;;;4.00;;
21886;SDS011;11108;49.988;8.182;2022-12-18T11:54:11;3.87;;;3.57;;
21886;SDS011;11108;49.988;8.182;2022-12-18T11:56:39;4.40;;;4.00;;
21886;SDS011;11108;49.988;8.182;2022-12-18T12:01:54;4.30;;;4.00;;
21886;SDS011;11108;49.988;8.182;2022-12-18T12:12:23;4.37;;;4.07;;
21886;SDS011;11108;49.988;8.182;2022-12-18T12:19:57;4.30;;;4.00;;
21886;SDS011;11108;49.988;8.182;2022-12-18T12:22:31;4.53;;;4.23;;
21886;SDS011;11108;49.988;8.182;2022-12-18T12:27:27;4.40;;;4.10;;
21886;SDS011;11108;49.988;8.182;2022-12-18T12:30:06;4.23;;;3.93;;
21886;SDS011;11108;49.988;8.182;2022-12-18T12:37:41;4.53;;;4.13;;
21886;SDS011;11108;49.988;8.182;2022-12-18T12:40:11;4.50;;;4.10;;
21886;SDS011;11108;49.988;8.182;2022-12-18T12:42:38;4.67;;;4.23;;
21886;SDS011;11108;49.988;8.182;2022-12-18T12:45:26;4.13;;;3.73;;
21886;SDS011;11108;49.988;8.182;2022-12-18T12:47:53;4.40;;;4.07;;
21886;SDS011;11108;49.988;8.182;2022-12-18T12:50:19;4.40;;;4.00;;
21886;SDS011;11108;49.988;8.182;2022-12-18T12:52:47;3.93;;;3.63;;
21886;SDS011;11108;49.988;8.182;2022-12-18T12:55:21;4.70;;;4.30;;
21886;SDS011;11108;49.988;8.182;2022-12-18T12:58:05;5.03;;;4.53;;
21886;SDS011;11108;49.988;8.182;2022-12-18T13:00:43;4.47;;;4.17;;
21886;SDS011;11108;49.988;8.182;2022-12-18T13:05:40;4.90;;;4.50;;
21886;SDS011;11108;49.988;8.182;2022-12-18T13:08:10;4.63;;;4.23;;
21886;SDS011;11108;49.988;8.182;2022-12-18T13:10:39;5.30;;;4.30;;
21886;SDS011;11108;49.988;8.182;2022-12-18T13:13:09;5.00;;;4.60;;
21886;SDS011;11108;49.988;8.182;2022-12-18T13:15:39;4.60;;;4.20;;
21886;SDS011;11108;49.988;8.182;2022-12-18T13:20:32;5.13;;;4.63;;
21886;SDS011;11108;49.988;8.182;2022-12-18T13:22:58;5.23;;;4.77;;
21886;SDS011;11108;49.988;8.182;2022-12-18T13:27:59;5.93;;;5.43;;
21886;SDS011;11108;49.988;8.182;2022-12-18T13:30:41;6.10;;;5.07;;
21886;SDS011;11108;49.988;8.182;2022-12-18T13:51:42;5.60;;;4.97;;
21886;SDS011;11108;49.988;8.182;2022-12-18T13:56:48;6.57;;;5.73;;
21886;SDS011;11108;49.988;8.182;2022-12-18T14:01:43;6.13;;;4.20;;
21886;SDS011;11108;49.988;8.182;2022-12-18T14:04:09;5.47;;;4.97;;
21886;SDS011;11108;49.988;8.182;2022-12-18T14:06:34;4.90;;;4.43;;
21886;SDS011;11108;49.988;8.182;2022-12-18T14:08:59;5.00;;;4.50;;
21886;SDS011;11108;49.988;8.182;2022-12-18T14:11:25;5.67;;;5.17;;
21886;SDS011;11108;49.988;8.182;2022-12-18T14:13:50;5.43;;;4.97;;
21886;SDS011;11108;49.988;8.182;2022-12-18T14:16:15;5.70;;;5.20;;
21886;SDS011;11108;49.988;8.182;2022-12-18T14:21:14;5.67;;;4.90;;
21886;SDS011;11108;49.988;8.182;2022-12-18T14:23:41;5.27;;;4.87;;
21886;SDS011;11108;49.988;8.182;2022-12-18T14:26:24;5.57;;;5.07;;
21886;SDS011;11108;49.988;8.182;2022-12-18T14:28:50;5.63;;;5.13;;
21886;SDS011;11108;49.988;8.182;2022-12-18T14:31:25;5.53;;;5.03;;
21886;SDS011;11108;49.988;8.182;2022-12-18T14:33:51;5.70;;;5.10;;
21886;SDS011;11108;49.988;8.182;2022-12-18T14:36:18;7.67;;;5.40;;
21886;SDS011;11108;49.988;8.182;2022-12-18T14:38:47;5.47;;;4.93;;
21886;SDS011;11108;49.988;8.182;2022-12-18T14:41:13;6.03;;;5.43;;
21886;SDS011;11108;49.988;8.182;2022-12-18T14:43:40;5.73;;;5.23;;
21886;SDS011;11108;49.988;8.182;2022-12-18T14:46:19;5.83;;;5.23;;
21886;SDS011;11108;49.988;8.182;2022-12-18T14:48:50;5.43;;;4.93;;
21886;SDS011;11108;49.988;8.182;2022-12-18T14:51:17;5.17;;;4.77;;
21886;SDS011;11108;49.988;8.182;2022-12-18T14:53:44;5.90;;;5.33;;
21886;SDS011;11108;49.988;8.182;2022-12-18T14:56:13;5.50;;;5.00;;
21886;SDS011;11108;49.988;8.182;2022-12-18T14:58:39;5.73;;;5.20;;
21886;SDS011;11108;49.988;8.182;2022-12-18T15:01:09;5.27;;;4.77;;
21886;SDS011;11108;49.988;8.182;2022-12-18T15:03:43;5.83;;;5.20;;
21886;SDS011;11108;49.988;8.182;2022-12-18T15:06:15;5.80;;;5.30;;
21886;SDS011;11108;49.988;8.182;2022-12-18T15:08:41;4.97;;;4.50;;
21886;SDS011;11108;49.988;8.182;2022-12-18T15:11:24;6.03;;;5.13;;
21886;SDS011;11108;49.988;8.182;2022-12-18T15:13:50;5.67;;;4.77;;
21886;SDS011;11108;49.988;8.182;2022-12-18T15:16:16;5.30;;;4.80;;
21886;SDS011;11108;49.988;8.182;2022-12-18T15:18:41;5.40;;;4.93;;
21886;SDS011;11108;49.988;8.182;2022-12-18T15:21:08;5.10;;;4.70;;
21886;SDS011;11108;49.988;8.182;2022-12-18T15:23:36;5.87;;;5.37;;
21886;SDS011;11108;49.988;8.182;2022-12-18T15:26:06;6.10;;;5.50;;
21886;SDS011;11108;49.988;8.182;2022-12-18T15:31:01;5.63;;;5.10;;
21886;SDS011;11108;49.988;8.182;2022-12-18T15:33:29;5.70;;;5.07;;
21886;SDS011;11108;49.988;8.182;2022-12-18T15:35:55;5.37;;;4.90;;
21886;SDS011;11108;49.988;8.182;2022-12-18T15:38:21;6.03;;;5.43;;
21886;SDS011;11108;49.988;8.182;2022-12-18T15:40:46;5.57;;;5.00;;
21886;SDS011;11108;49.988;8.182;2022-12-18T15:43:11;4.60;;;4.20;;
21886;SDS011;11108;49.988;8.182;2022-12-18T15:45:55;5.70;;;5.13;;
21886;SDS011;11108;49.988;8.182;2022-12-18T15:48:21;6.67;;;5.33;;
21886;SDS011;11108;49.988;8.182;2022-12-18T15:50:47;5.47;;;4.97;;
21886;SDS011;11108;49.988;8.182;2022-12-18T15:53:13;5.70;;;5.07;;
21886;SDS011;11108;49.988;8.182;2022-12-18T15:55:38;5.87;;;4.43;;
21886;SDS011;11108;49.988;8.182;2022-12-18T15:58:22;5.90;;;4.87;;
21886;SDS011;11108;49.988;8.182;2022-12-18T16:00:47;5.70;;;5.13;;
21886;SDS011;11108;49.988;8.182;2022-12-18T16:03:12;5.17;;;4.67;;
21886;SDS011;11108;49.988;8.182;2022-12-18T16:05:37;5.00;;;4.60;;
21886;SDS011;11108;49.988;8.182;2022-12-18T16:08:03;4.77;;;4.37;;
21886;SDS011;11108;49.988;8.182;2022-12-18T16:10:28;5.70;;;5.20;;
21886;SDS011;11108;49.988;8.182;2022-12-18T16:12:53;5.87;;;4.70;;
21886;SDS011;11108;49.988;8.182;2022-12-18T16:15:19;4.73;;;4.33;;
21886;SDS011;11108;49.988;8.182;2022-12-18T16:17:44;5.40;;;4.90;;
21886;SDS011;11108;49.988;8.182;2022-12-18T16:20:13;5.30;;;4.80;;
21886;SDS011;11108;49.988;8.182;2022-12-18T16:22:40;5.57;;;5.00;;
21886;SDS011;11108;49.988;8.182;2022-12-18T16:25:05;6.77;;;5.23;;
21886;SDS011;11108;49.988;8.182;2022-12-18T16:27:31;5.80;;;5.20;;
21886;SDS011;11108;49.988;8.182;2022-12-18T16:29:56;6.10;;;5.60;;